createdAt,value
2023-03-11T00:00:53.552Z,4.15
2023-03-11T00:03:55.120Z,4.13
2023-03-11T00:06:56.624Z,4.72
2023-03-11T00:09:59.295Z,4.43
2023-03-11T00:13:01.186Z,4.55
2023-03-11T00:16:02.848Z,4.70
2023-03-11T00:19:04.302Z,4.55
2023-03-11T00:22:05.805Z,4.65
2023-03-11T00:25:07.625Z,4.15
2023-03-11T00:28:10.457Z,3.45
2023-03-11T00:31:14.997Z,4.15
2023-03-11T00:34:16.470Z,3.45
2023-03-11T00:37:17.926Z,3.67
2023-03-11T00:40:20.622Z,3.55
2023-03-11T00:43:22.131Z,3.40
2023-03-11T00:46:23.680Z,3.40
2023-03-11T00:49:25.197Z,3.05
2023-03-11T00:52:26.899Z,4.60
2023-03-11T00:55:31.382Z,3.20
2023-03-11T00:58:35.722Z,3.35
2023-03-11T01:01:37.796Z,4.32
2023-03-11T01:04:39.677Z,3.08
2023-03-11T01:07:41.880Z,4.35
2023-03-11T01:10:43.506Z,2.85
2023-03-11T01:13:45.180Z,2.85
2023-03-11T01:16:46.754Z,2.45
2023-03-11T01:19:49.418Z,2.35
2023-03-11T01:22:51.053Z,2.28
2023-03-11T01:25:52.564Z,3.28
2023-03-11T01:28:54.045Z,4.05
2023-03-11T01:31:55.519Z,4.43
2023-03-11T01:34:57.097Z,2.90
2023-03-11T01:38:00.928Z,3.13
2023-03-11T01:41:02.401Z,2.40
2023-03-11T01:44:05.069Z,4.85
2023-03-11T01:47:11.787Z,2.92
2023-03-11T01:50:13.907Z,3.13
2023-03-11T01:53:17.465Z,3.85
2023-03-11T01:56:19.744Z,2.75
2023-03-11T01:59:25.577Z,3.58
2023-03-11T02:02:52.131Z,4.90
2023-03-11T02:05:57.345Z,4.57
2023-03-11T02:12:02.957Z,5.68
2023-03-11T02:15:06.904Z,2.67
2023-03-11T02:18:14.544Z,3.08
2023-03-11T02:21:32.874Z,3.70
2023-03-11T02:25:14.404Z,6.30
2023-03-11T02:28:19.038Z,2.47
2023-03-11T02:31:22.218Z,2.80
2023-03-11T02:34:30.855Z,2.83
2023-03-11T02:37:32.557Z,3.95
2023-03-11T02:41:01.176Z,3.60
2023-03-11T02:44:06.897Z,2.75
2023-03-11T02:47:08.675Z,5.30
2023-03-11T02:50:15.375Z,4.10
2023-03-11T02:53:17.321Z,3.47
2023-03-11T02:56:18.878Z,2.53
2023-03-11T02:59:20.610Z,5.07
2023-03-11T03:02:22.433Z,6.38
2023-03-11T03:05:24.282Z,2.90
2023-03-11T03:08:26.460Z,3.45
2023-03-11T03:11:28.511Z,4.57
2023-03-11T03:14:30.336Z,3.33
2023-03-11T03:17:32.034Z,4.45
2023-03-11T03:20:33.902Z,6.70
2023-03-11T03:23:37.815Z,3.72
2023-03-11T03:26:39.422Z,5.70
2023-03-11T03:29:42.258Z,3.75
2023-03-11T03:32:43.944Z,7.18
2023-03-11T03:35:48.659Z,3.83
2023-03-11T03:38:57.469Z,5.45
2023-03-11T03:42:02.463Z,6.60
2023-03-11T03:45:08.545Z,4.10
2023-03-11T03:48:10.096Z,4.82
2023-03-11T03:51:17.362Z,5.97
2023-03-11T03:54:32.324Z,6.82
2023-03-11T03:57:33.946Z,4.50
2023-03-11T04:00:36.185Z,4.70
2023-03-11T04:03:39.122Z,3.88
2023-03-11T04:06:43.981Z,5.53
2023-03-11T04:09:45.606Z,4.45
2023-03-11T04:12:48.059Z,3.60
2023-03-11T04:15:49.668Z,4.50
2023-03-11T04:18:51.334Z,5.80
2023-03-11T04:21:54.012Z,4.03
2023-03-11T04:24:57.240Z,5.65
2023-03-11T04:27:58.786Z,5.35
2023-03-11T04:31:01.033Z,5.03
2023-03-11T04:34:03.595Z,6.82
2023-03-11T04:37:05.408Z,4.65
2023-03-11T04:40:11.140Z,5.45
2023-03-11T04:43:13.064Z,6.00
2023-03-11T04:46:14.828Z,5.25
2023-03-11T04:49:16.647Z,4.47
2023-03-11T04:52:18.844Z,5.07
2023-03-11T04:55:20.526Z,4.00
2023-03-11T04:58:22.153Z,5.68
2023-03-11T05:01:23.743Z,5.35
2023-03-11T05:04:25.387Z,5.00
2023-03-11T05:07:27.137Z,4.90
2023-03-11T05:10:31.777Z,4.88
2023-03-11T05:13:35.924Z,5.43
2023-03-11T05:16:37.626Z,4.28
2023-03-11T05:19:39.913Z,3.53
2023-03-11T05:22:47.746Z,5.03
2023-03-11T05:25:49.317Z,4.43
2023-03-11T05:28:50.836Z,4.97
2023-03-11T05:31:53.525Z,3.80
2023-03-11T05:34:55.168Z,9.27
2023-03-11T05:37:56.819Z,7.15
2023-03-11T05:41:01.858Z,10.48
2023-03-11T05:44:04.374Z,5.05
2023-03-11T05:47:06.037Z,6.72
2023-03-11T05:50:09.567Z,5.60
2023-03-11T05:53:11.304Z,8.52
2023-03-11T05:56:12.845Z,5.45
2023-03-11T05:59:16.551Z,9.77
2023-03-11T06:02:21.112Z,8.27
2023-03-11T06:05:23.567Z,6.43
2023-03-11T06:08:26.652Z,6.82
2023-03-11T06:11:28.334Z,6.15
2023-03-11T06:14:31.729Z,8.15
2023-03-11T06:17:35.668Z,7.72
2023-03-11T06:20:37.892Z,5.00
2023-03-11T06:23:39.508Z,6.65
2023-03-11T06:26:41.325Z,5.40
2023-03-11T06:29:43.044Z,8.77
2023-03-11T06:32:48.041Z,7.95
2023-03-11T06:35:57.994Z,4.18
2023-03-11T06:38:59.537Z,7.72
2023-03-11T06:42:02.400Z,5.47
2023-03-11T06:45:05.209Z,4.68
2023-03-11T06:48:07.244Z,6.30
2023-03-11T06:51:10.375Z,3.97
2023-03-11T06:54:12.311Z,5.18
2023-03-11T06:57:14.178Z,4.28
2023-03-11T07:00:17.275Z,6.03
2023-03-11T07:03:23.675Z,4.05
2023-03-11T07:06:26.760Z,4.60
2023-03-11T07:09:34.213Z,2.97
2023-03-11T07:12:36.827Z,4.22
2023-03-11T07:15:38.557Z,5.00
2023-03-11T07:18:40.237Z,6.88
2023-03-11T07:21:42.276Z,5.38
2023-03-11T07:24:49.909Z,4.78
2023-03-11T07:27:51.408Z,5.30
2023-03-11T07:30:53.382Z,5.32
2023-03-11T07:33:58.204Z,4.38
2023-03-11T07:36:59.739Z,9.43
2023-03-11T07:40:01.253Z,4.15
2023-03-11T07:43:02.906Z,5.47
2023-03-11T07:46:05.792Z,6.70
2023-03-11T07:49:07.548Z,3.08
2023-03-11T07:52:09.056Z,5.95
2023-03-11T07:55:10.713Z,4.00
2023-03-11T07:58:12.185Z,4.78
2023-03-11T08:01:16.714Z,4.90
2023-03-11T08:04:18.221Z,4.22
2023-03-11T08:07:20.692Z,4.55
2023-03-11T08:10:22.214Z,5.53
2023-03-11T08:13:23.823Z,5.88
2023-03-11T08:16:25.895Z,5.47
2023-03-11T08:19:27.346Z,6.88
2023-03-11T08:22:29.246Z,7.60
2023-03-11T08:25:30.872Z,5.53
2023-03-11T08:28:32.751Z,8.05
2023-03-11T08:31:35.171Z,5.78
2023-03-11T08:34:39.197Z,4.93
2023-03-11T08:37:40.816Z,7.30
2023-03-11T08:40:42.287Z,6.05
2023-03-11T08:43:44.417Z,5.97
2023-03-11T08:46:46.154Z,8.05
2023-03-11T08:49:47.802Z,4.97
2023-03-11T08:52:49.421Z,4.57
2023-03-11T08:55:52.363Z,4.63
2023-03-11T08:58:54.316Z,4.30
2023-03-11T09:01:56.457Z,2.60
2023-03-11T09:04:57.904Z,4.68
2023-03-11T09:07:59.383Z,4.55
2023-03-11T09:11:01.085Z,2.95
2023-03-11T09:14:02.780Z,3.88
2023-03-11T09:17:04.312Z,4.15
2023-03-11T09:20:06.602Z,5.03
2023-03-11T09:23:10.163Z,4.55
2023-03-11T09:26:12.210Z,4.30
2023-03-11T09:29:13.754Z,3.85
2023-03-11T09:32:15.703Z,2.78
2023-03-11T09:35:17.409Z,4.53
2023-03-11T09:38:19.033Z,2.53
2023-03-11T09:41:38.311Z,5.45
2023-03-11T09:45:16.461Z,4.72
2023-03-11T09:48:34.489Z,3.13
2023-03-11T09:51:53.638Z,3.58
2023-03-11T09:54:55.760Z,3.95
2023-03-11T09:57:59.867Z,3.20
2023-03-11T10:04:18.371Z,3.47
2023-03-11T10:07:25.561Z,3.20
2023-03-11T10:10:30.918Z,5.28
2023-03-11T10:13:49.481Z,9.77
2023-03-11T10:17:02.791Z,4.55
2023-03-11T10:20:22.370Z,4.03
2023-03-11T10:23:45.258Z,4.60
2023-03-11T10:26:57.959Z,6.60
2023-03-11T10:30:09.444Z,6.20
2023-03-11T10:33:17.113Z,4.43
2023-03-11T10:36:27.225Z,4.28
2023-03-11T10:39:28.975Z,3.63
2023-03-11T10:42:30.531Z,3.28
2023-03-11T10:45:38.006Z,4.07
2023-03-11T10:48:39.511Z,3.83
2023-03-11T10:51:45.199Z,5.40
2023-03-11T10:54:49.080Z,4.63
2023-03-11T10:57:50.594Z,3.47
2023-03-11T11:01:02.284Z,3.38
2023-03-11T11:04:04.129Z,4.22
2023-03-11T11:07:20.967Z,1.98
2023-03-11T11:10:27.555Z,3.58
2023-03-11T11:13:32.288Z,4.40
2023-03-11T11:16:35.175Z,4.25
2023-03-11T11:19:44.401Z,5.15
2023-03-11T11:22:52.340Z,6.45
2023-03-11T11:26:00.138Z,4.97
2023-03-11T11:29:15.648Z,3.10
2023-03-11T11:32:25.701Z,7.40
2023-03-11T11:35:27.312Z,4.88
2023-03-11T11:38:30.794Z,5.10
2023-03-11T11:41:35.323Z,2.70
2023-03-11T11:44:36.793Z,5.93
2023-03-11T11:47:45.186Z,3.13
2023-03-11T11:50:52.640Z,2.83
2023-03-11T11:54:20.154Z,5.57
2023-03-11T11:57:23.007Z,2.30
2023-03-11T12:00:36.050Z,2.65
2023-03-11T12:04:07.815Z,2.90
2023-03-11T12:07:36.883Z,3.40
2023-03-11T12:10:53.664Z,8.82
2023-03-11T12:14:09.339Z,7.18
2023-03-11T12:17:13.307Z,5.80
2023-03-11T12:20:28.162Z,7.25
2023-03-11T12:23:54.123Z,5.07
2023-03-11T12:27:01.795Z,4.10
2023-03-11T12:30:12.607Z,8.68
2023-03-11T12:33:33.224Z,4.07
2023-03-11T12:36:37.553Z,6.88
2023-03-11T12:39:39.068Z,3.97
2023-03-11T12:42:41.108Z,5.65
2023-03-11T12:45:51.347Z,4.40
2023-03-11T12:49:11.994Z,6.13
2023-03-11T12:52:13.570Z,4.68
2023-03-11T12:55:15.026Z,5.10
2023-03-11T12:58:29.200Z,3.78
2023-03-11T13:01:39.880Z,5.45
2023-03-11T13:04:51.803Z,4.40
2023-03-11T13:08:20.655Z,3.38
2023-03-11T13:11:34.151Z,4.07
2023-03-11T13:14:35.732Z,4.17
2023-03-11T13:17:37.161Z,3.47
2023-03-11T13:20:38.685Z,6.40
2023-03-11T13:23:42.776Z,4.43
2023-03-11T13:27:27.646Z,6.25
2023-03-11T13:30:35.689Z,4.95
2023-03-11T13:33:45.993Z,4.80
2023-03-11T13:37:29.664Z,4.63
2023-03-11T13:40:39.362Z,3.90
2023-03-11T13:43:45.837Z,4.45
2023-03-11T13:46:50.368Z,5.45
2023-03-11T13:50:06.021Z,3.88
2023-03-11T13:53:23.776Z,6.07
2023-03-11T13:56:29.030Z,4.32
2023-03-11T13:59:33.638Z,3.97
2023-03-11T14:02:35.849Z,3.70
2023-03-11T14:05:44.337Z,3.00
2023-03-11T14:08:54.736Z,3.53
2023-03-11T14:12:04.912Z,6.63
2023-03-11T14:15:09.236Z,2.70
2023-03-11T14:18:41.688Z,4.35
2023-03-11T14:21:44.320Z,6.03
2023-03-11T14:24:48.084Z,5.05
2023-03-11T14:27:58.183Z,4.88
2023-03-11T14:31:01.586Z,7.30
2023-03-11T14:34:10.439Z,5.93
2023-03-11T14:37:25.925Z,5.32
2023-03-11T14:40:32.892Z,3.58
2023-03-11T14:43:41.417Z,4.18
2023-03-11T14:46:45.271Z,4.80
2023-03-11T14:49:49.870Z,4.35
2023-03-11T14:52:55.501Z,4.38
2023-03-11T14:55:59.890Z,5.35
2023-03-11T14:59:12.720Z,4.72
2023-03-11T15:02:37.607Z,6.55
2023-03-11T15:05:47.458Z,3.90
2023-03-11T15:08:55.881Z,6.38
2023-03-11T15:11:59.765Z,5.00
2023-03-11T15:15:01.392Z,5.72
2023-03-11T15:18:03.382Z,4.40
2023-03-11T15:21:10.534Z,7.32
2023-03-11T15:24:20.945Z,5.65
2023-03-11T15:27:34.337Z,4.70
2023-03-11T15:30:36.016Z,9.00
2023-03-11T15:33:42.550Z,6.35
2023-03-11T15:36:50.168Z,5.00
2023-03-11T15:39:53.111Z,6.88
2023-03-11T15:43:21.195Z,8.20
2023-03-11T15:46:22.722Z,5.80
2023-03-11T15:49:24.205Z,6.07
2023-03-11T15:52:25.964Z,7.55
2023-03-11T15:55:28.623Z,6.82
2023-03-11T15:58:30.674Z,5.68
2023-03-11T16:01:32.167Z,6.63
2023-03-11T16:04:33.770Z,6.93
2023-03-11T16:07:39.838Z,6.53
2023-03-11T16:10:42.508Z,6.78
2023-03-11T16:13:44.206Z,6.30
2023-03-11T16:16:45.917Z,9.25
2023-03-11T16:19:49.584Z,10.13
2023-03-11T16:22:54.083Z,7.50
2023-03-11T16:26:00.773Z,5.05
2023-03-11T16:29:16.634Z,9.05
2023-03-11T16:32:20.414Z,5.50
2023-03-11T16:35:21.918Z,6.00
2023-03-11T16:38:23.432Z,8.25
2023-03-11T16:41:24.938Z,9.68
2023-03-11T16:44:26.728Z,6.22
2023-03-11T16:47:28.319Z,8.20
2023-03-11T16:50:29.953Z,8.35
2023-03-11T16:53:31.587Z,15.88
2023-03-11T16:56:34.227Z,17.77
2023-03-11T16:59:35.806Z,16.75
2023-03-11T17:02:37.736Z,16.92
2023-03-11T17:05:39.290Z,11.75
2023-03-11T17:08:40.799Z,9.55
2023-03-11T17:11:42.324Z,7.38
2023-03-11T17:14:43.825Z,10.88
2023-03-11T17:17:45.315Z,12.05
2023-03-11T17:20:46.865Z,10.13
2023-03-11T17:23:48.332Z,7.05
2023-03-11T17:26:49.842Z,9.35
2023-03-11T17:29:51.331Z,3.75
2023-03-11T17:32:52.808Z,8.45
2023-03-11T17:36:06.721Z,4.88
2023-03-11T17:39:08.620Z,8.07
2023-03-11T17:42:10.338Z,6.15
2023-03-11T17:45:12.823Z,7.60
2023-03-11T17:48:14.373Z,5.55
2023-03-11T17:51:19.470Z,7.57
2023-03-11T17:54:20.985Z,7.18
2023-03-11T17:57:22.884Z,12.20
2023-03-11T18:00:24.542Z,7.78
2023-03-11T18:03:26.012Z,5.80
2023-03-11T18:06:27.517Z,6.20
2023-03-11T18:09:29.079Z,9.23
2023-03-11T18:12:30.562Z,10.70
2023-03-11T18:15:32.057Z,8.32
2023-03-11T18:18:35.164Z,7.00
2023-03-11T18:21:36.669Z,5.22
2023-03-11T18:24:39.351Z,5.43
2023-03-11T18:27:41.082Z,5.00
2023-03-11T18:30:42.552Z,6.13
2023-03-11T18:33:49.014Z,5.80
2023-03-11T18:36:50.523Z,9.98
2023-03-11T18:39:52.115Z,12.55
2023-03-11T18:42:53.662Z,13.55
2023-03-11T18:45:55.181Z,21.60
2023-03-11T18:48:57.942Z,17.08
2023-03-11T18:51:59.627Z,14.18
2023-03-11T18:55:01.105Z,13.95
2023-03-11T18:58:02.569Z,11.85
2023-03-11T19:01:06.662Z,10.27
2023-03-11T19:04:09.790Z,16.15
2023-03-11T19:07:11.294Z,12.68
2023-03-11T19:10:14.906Z,8.93
2023-03-11T19:13:19.197Z,7.25
2023-03-11T19:16:24.066Z,9.02
2023-03-11T19:19:25.588Z,13.60
2023-03-11T19:22:27.037Z,14.38
2023-03-11T19:25:28.588Z,12.82
2023-03-11T19:28:30.479Z,32.22
2023-03-11T19:31:32.019Z,38.22
2023-03-11T19:34:33.592Z,29.52
2023-03-11T19:37:35.052Z,13.43
2023-03-11T19:40:36.505Z,23.75
2023-03-11T19:43:38.042Z,14.27
2023-03-11T19:46:39.585Z,9.43
2023-03-11T19:49:41.089Z,9.68
2023-03-11T19:52:42.556Z,7.10
2023-03-11T19:55:49.784Z,7.25
2023-03-11T19:58:52.167Z,6.70
2023-03-11T20:01:53.754Z,11.35
2023-03-11T20:04:55.256Z,9.02
2023-03-11T20:07:56.946Z,13.02
2023-03-11T20:11:00.678Z,6.82
2023-03-11T20:14:02.244Z,9.52
2023-03-11T20:17:03.759Z,10.63
2023-03-11T20:20:05.648Z,7.32
2023-03-11T20:23:07.126Z,12.57
2023-03-11T20:26:12.324Z,12.80
2023-03-11T20:29:13.937Z,10.70
2023-03-11T20:32:15.560Z,15.10
2023-03-11T20:35:17.324Z,11.93
2023-03-11T20:38:18.821Z,16.55
2023-03-11T20:41:23.090Z,18.85
2023-03-11T20:44:24.728Z,13.45
2023-03-11T20:47:26.371Z,14.02
2023-03-11T20:50:27.996Z,12.52
2023-03-11T20:53:30.712Z,11.20
2023-03-11T20:56:32.248Z,8.85
2023-03-11T20:59:33.796Z,8.48
2023-03-11T21:02:35.620Z,10.95
2023-03-11T21:05:38.379Z,16.70
2023-03-11T21:08:39.977Z,13.60
2023-03-11T21:11:41.730Z,27.23
2023-03-11T21:14:43.319Z,68.88
2023-03-11T21:17:44.774Z,16.70
2023-03-11T21:20:46.370Z,9.55
2023-03-11T21:23:49.271Z,9.70
2023-03-11T21:26:50.783Z,11.32
2023-03-11T21:29:53.890Z,9.10
2023-03-11T21:32:55.532Z,12.38
2023-03-11T21:35:59.962Z,10.93
2023-03-11T21:39:03.584Z,11.23
2023-03-11T21:42:05.590Z,14.07
2023-03-11T21:45:07.791Z,10.10
2023-03-11T21:48:10.993Z,9.40
2023-03-11T21:51:13.703Z,9.50
2023-03-11T21:54:15.933Z,10.77
2023-03-11T21:57:17.535Z,8.10
2023-03-11T22:00:19.221Z,8.48
2023-03-11T22:03:21.012Z,11.43
2023-03-11T22:06:22.818Z,9.35
2023-03-11T22:09:25.877Z,11.00
2023-03-11T22:12:27.639Z,8.47
2023-03-11T22:15:29.337Z,8.48
2023-03-11T22:18:30.971Z,7.97
2023-03-11T22:21:32.611Z,7.10
2023-03-11T22:24:34.218Z,10.70
2023-03-11T22:27:36.000Z,7.15
2023-03-11T22:30:37.495Z,9.02
2023-03-11T22:33:39.662Z,5.88
2023-03-11T22:36:41.176Z,6.43
2023-03-11T22:39:43.325Z,7.05
2023-03-11T22:42:44.808Z,6.88
2023-03-11T22:45:46.367Z,6.82
2023-03-11T22:48:48.312Z,7.63
2023-03-11T22:51:49.802Z,8.85
2023-03-11T22:54:51.397Z,6.68
2023-03-11T22:57:52.867Z,7.53
2023-03-11T23:00:54.398Z,5.72
2023-03-11T23:03:55.985Z,7.43
2023-03-11T23:06:57.639Z,6.45
2023-03-11T23:09:59.186Z,11.82
2023-03-11T23:13:00.823Z,7.80
2023-03-11T23:16:07.440Z,5.68
2023-03-11T23:19:09.254Z,8.10
2023-03-11T23:22:10.730Z,9.02
2023-03-11T23:25:16.040Z,8.38
2023-03-11T23:28:17.571Z,6.68
2023-03-11T23:31:20.863Z,8.30
2023-03-11T23:34:22.674Z,10.93
2023-03-11T23:37:24.184Z,8.93
2023-03-11T23:40:26.211Z,6.65
2023-03-11T23:43:27.796Z,6.43
2023-03-11T23:46:29.382Z,6.57
2023-03-11T23:49:30.910Z,5.25
2023-03-11T23:52:32.955Z,6.90
2023-03-11T23:55:37.841Z,8.18
2023-03-11T23:58:39.874Z,7.90
